createdAt,value
2022-07-25T00:01:23.132Z,17.40
2022-07-25T00:03:52.139Z,18.35
2022-07-25T00:06:20.254Z,18.08
2022-07-25T00:08:48.353Z,18.45
2022-07-25T00:11:16.473Z,17.15
2022-07-25T00:13:44.689Z,17.48
2022-07-25T00:16:12.841Z,17.58
2022-07-25T00:18:42.298Z,17.70
2022-07-25T00:21:10.337Z,18.77
2022-07-25T00:23:38.475Z,16.48
2022-07-25T00:26:06.839Z,16.77
2022-07-25T00:28:35.122Z,18.45
2022-07-25T00:31:03.285Z,16.52
2022-07-25T00:33:31.378Z,17.42
2022-07-25T00:36:01.231Z,19.80
2022-07-25T00:38:29.407Z,19.23
2022-07-25T00:40:57.466Z,18.77
2022-07-25T00:43:25.498Z,17.70
2022-07-25T00:45:53.540Z,20.20
2022-07-25T00:48:21.603Z,19.50
2022-07-25T00:50:49.748Z,18.67
2022-07-25T00:53:19.679Z,18.88
2022-07-25T00:55:48.684Z,18.17
2022-07-25T00:58:16.777Z,19.95
2022-07-25T01:00:44.950Z,18.60
2022-07-25T01:03:13.124Z,17.85
2022-07-25T01:05:41.337Z,17.98
2022-07-25T01:08:10.243Z,19.90
2022-07-25T01:10:40.497Z,18.40
2022-07-25T01:13:08.626Z,18.45
2022-07-25T01:15:36.940Z,18.55
2022-07-25T01:18:07.790Z,20.15
2022-07-25T01:20:37.289Z,20.30
2022-07-25T01:23:05.504Z,20.38
2022-07-25T01:25:33.607Z,21.65
2022-07-25T01:28:01.700Z,21.20
2022-07-25T01:30:29.818Z,20.75
2022-07-25T01:32:57.965Z,22.00
2022-07-25T01:35:26.065Z,20.88
2022-07-25T01:37:55.537Z,20.77
2022-07-25T01:40:24.540Z,20.38
2022-07-25T01:42:52.686Z,20.75
2022-07-25T01:45:20.785Z,19.00
2022-07-25T01:47:48.852Z,20.17
2022-07-25T01:50:16.919Z,18.50
2022-07-25T01:52:45.434Z,19.08
2022-07-25T01:55:14.852Z,18.27
2022-07-25T01:57:50.022Z,17.40
2022-07-25T02:00:19.024Z,16.25
2022-07-25T02:02:47.777Z,16.25
2022-07-25T02:05:17.035Z,19.25
2022-07-25T02:07:45.203Z,17.20
2022-07-25T02:10:14.704Z,16.30
2022-07-25T02:12:42.811Z,16.92
2022-07-25T02:15:11.527Z,17.60
2022-07-25T02:17:39.668Z,17.55
2022-07-25T02:20:08.554Z,18.73
2022-07-25T02:22:36.640Z,19.83
2022-07-25T02:25:05.236Z,17.65
2022-07-25T02:27:34.752Z,17.45
2022-07-25T02:30:02.919Z,17.20
2022-07-25T02:32:31.041Z,17.70
2022-07-25T02:34:59.283Z,19.20
2022-07-25T02:37:27.419Z,19.67
2022-07-25T02:39:55.817Z,20.58
2022-07-25T02:42:23.983Z,19.85
2022-07-25T02:44:53.583Z,18.42
2022-07-25T02:47:21.885Z,19.15
2022-07-25T02:49:50.008Z,18.95
2022-07-25T02:52:18.099Z,18.63
2022-07-25T02:54:46.249Z,21.30
2022-07-25T02:57:14.337Z,20.98
2022-07-25T02:59:42.401Z,20.60
2022-07-25T03:02:11.909Z,19.17
2022-07-25T03:04:40.021Z,20.67
2022-07-25T03:07:08.259Z,20.80
2022-07-25T03:09:36.352Z,19.65
2022-07-25T03:12:04.852Z,20.58
2022-07-25T03:14:32.994Z,18.08
2022-07-25T03:17:01.662Z,20.50
2022-07-25T03:19:31.400Z,19.38
2022-07-25T03:21:59.501Z,19.63
2022-07-25T03:24:27.616Z,17.02
2022-07-25T03:26:56.277Z,17.17
2022-07-25T03:29:24.415Z,17.42
2022-07-25T03:31:52.615Z,19.38
2022-07-25T03:34:21.288Z,20.52
2022-07-25T03:36:50.818Z,19.42
2022-07-25T03:39:19.277Z,19.83
2022-07-25T03:41:47.564Z,20.35
2022-07-25T03:44:15.708Z,19.20
2022-07-25T03:46:43.860Z,19.23
2022-07-25T03:49:12.051Z,17.55
2022-07-25T03:51:40.370Z,18.02
2022-07-25T03:54:13.713Z,17.05
2022-07-25T03:56:44.282Z,18.35
2022-07-25T03:59:14.181Z,17.98
2022-07-25T04:01:43.401Z,18.77
2022-07-25T04:04:12.418Z,18.92
2022-07-25T04:06:41.629Z,18.70
2022-07-25T04:09:12.352Z,17.35
2022-07-25T04:11:40.628Z,18.70
2022-07-25T04:14:09.316Z,19.15
2022-07-25T04:16:37.887Z,18.58
2022-07-25T04:19:08.728Z,19.38
2022-07-25T04:21:36.876Z,19.00
2022-07-25T04:24:05.459Z,18.77
2022-07-25T04:26:35.123Z,19.33
2022-07-25T04:29:04.087Z,18.17
2022-07-25T04:31:32.262Z,17.95
2022-07-25T04:34:00.783Z,18.35
2022-07-25T04:36:29.761Z,18.17
2022-07-25T04:38:57.952Z,18.05
2022-07-25T04:41:26.125Z,18.73
2022-07-25T04:43:55.691Z,18.35
2022-07-25T04:46:24.428Z,17.33
2022-07-25T04:48:52.661Z,17.55
2022-07-25T04:51:20.855Z,17.73
2022-07-25T04:53:49.214Z,17.25
2022-07-25T04:56:17.331Z,15.57
2022-07-25T04:58:45.495Z,14.70
2022-07-25T05:01:15.006Z,17.35
2022-07-25T05:03:49.822Z,17.00
2022-07-25T05:08:45.855Z,17.35
2022-07-25T05:11:13.960Z,16.35
2022-07-25T05:13:42.067Z,17.42
2022-07-25T05:16:10.232Z,17.35
2022-07-25T05:18:39.723Z,16.60
2022-07-25T05:21:11.474Z,16.17
2022-07-25T05:23:39.574Z,15.90
2022-07-25T05:26:07.833Z,16.92
2022-07-25T05:28:35.885Z,17.15
2022-07-25T05:31:04.743Z,15.43
2022-07-25T05:33:32.921Z,15.40
2022-07-25T05:36:03.439Z,14.80
2022-07-25T05:38:31.524Z,13.93
2022-07-25T05:40:59.656Z,14.32
2022-07-25T05:43:27.924Z,14.15
2022-07-25T05:46:01.762Z,15.00
2022-07-25T05:48:30.123Z,13.63
2022-07-25T05:50:59.499Z,14.15
2022-07-25T05:53:28.916Z,14.10
2022-07-25T05:55:57.095Z,13.18
2022-07-25T05:58:29.744Z,12.90
2022-07-25T06:00:58.437Z,14.23
2022-07-25T06:03:26.613Z,12.57
2022-07-25T06:05:59.570Z,14.15
2022-07-25T06:08:31.166Z,13.52
2022-07-25T06:10:59.769Z,14.23
2022-07-25T06:13:28.899Z,14.00
2022-07-25T06:15:57.416Z,14.07
2022-07-25T06:18:26.496Z,12.77
2022-07-25T06:20:54.817Z,13.52
2022-07-25T06:23:22.894Z,12.15
2022-07-25T06:25:57.114Z,12.30
2022-07-25T06:28:25.131Z,12.60
2022-07-25T06:30:53.188Z,11.57
2022-07-25T06:33:21.247Z,12.15
2022-07-25T06:35:49.344Z,11.95
2022-07-25T06:38:17.422Z,12.35
2022-07-25T06:40:45.545Z,13.13
2022-07-25T06:43:15.026Z,10.68
2022-07-25T06:45:47.109Z,11.65
2022-07-25T06:48:15.151Z,11.00
2022-07-25T06:50:43.468Z,10.25
2022-07-25T06:53:11.581Z,10.57
2022-07-25T06:55:39.727Z,10.65
2022-07-25T06:58:07.972Z,9.68
2022-07-25T07:00:37.482Z,10.48
2022-07-25T07:03:05.827Z,10.43
2022-07-25T07:05:36.500Z,10.95
2022-07-25T07:08:05.048Z,10.60
2022-07-25T07:10:33.224Z,10.15
2022-07-25T07:13:07.699Z,10.50
2022-07-25T07:15:37.947Z,10.63
2022-07-25T07:18:06.920Z,10.43
2022-07-25T07:20:35.093Z,9.60
2022-07-25T07:23:03.246Z,10.80
2022-07-25T07:25:31.454Z,6.93
2022-07-25T07:27:59.533Z,7.63
2022-07-25T07:30:52.209Z,9.85
2022-07-25T07:33:17.423Z,9.18
2022-07-25T07:35:46.223Z,9.57
2022-07-25T07:38:14.904Z,10.77
2022-07-25T07:40:43.140Z,10.25
2022-07-25T07:43:11.284Z,10.60
2022-07-25T07:45:39.372Z,10.07
2022-07-25T07:48:08.550Z,10.90
2022-07-25T07:50:38.182Z,10.45
2022-07-25T07:53:06.931Z,9.52
2022-07-25T07:55:46.534Z,9.75
2022-07-25T07:58:16.936Z,8.82
2022-07-25T08:00:46.018Z,10.98
2022-07-25T08:03:14.162Z,10.45
2022-07-25T08:05:48.155Z,10.52
2022-07-25T08:08:17.005Z,11.23
2022-07-25T08:10:47.731Z,10.38
2022-07-25T08:13:17.898Z,10.20
2022-07-25T08:15:48.373Z,8.50
2022-07-25T08:18:16.907Z,8.82
2022-07-25T08:20:47.602Z,8.43
2022-07-25T08:23:16.644Z,8.57
2022-07-25T08:25:45.204Z,8.43
2022-07-25T08:28:16.690Z,9.10
2022-07-25T08:30:45.073Z,8.52
2022-07-25T08:33:16.323Z,9.35
2022-07-25T08:35:51.848Z,7.20
2022-07-25T08:38:19.985Z,8.00
2022-07-25T08:40:48.431Z,7.13
2022-07-25T08:43:18.504Z,6.70
2022-07-25T08:45:48.217Z,8.52
2022-07-25T08:48:19.333Z,7.22
2022-07-25T08:50:49.679Z,9.30
2022-07-25T08:53:36.121Z,10.10
2022-07-25T08:56:12.314Z,7.88
2022-07-25T08:58:44.116Z,8.55
2022-07-25T09:01:13.394Z,8.77
2022-07-25T09:03:43.464Z,6.90
2022-07-25T09:06:21.497Z,8.60
2022-07-25T09:08:54.022Z,8.50
2022-07-25T09:11:32.489Z,8.32
2022-07-25T09:14:02.203Z,7.55
2022-07-25T09:16:31.651Z,8.07
2022-07-25T09:19:14.475Z,8.70
2022-07-25T09:21:46.172Z,7.35
2022-07-25T09:24:17.126Z,7.13
2022-07-25T09:26:48.387Z,6.95
2022-07-25T09:29:25.134Z,7.32
2022-07-25T09:31:54.860Z,7.80
2022-07-25T09:34:34.790Z,7.80
2022-07-25T09:37:05.644Z,7.53
2022-07-25T09:39:45.472Z,6.97
2022-07-25T09:42:24.130Z,7.95
2022-07-25T09:45:03.261Z,7.65
2022-07-25T09:47:32.959Z,7.82
2022-07-25T09:50:01.551Z,7.10
2022-07-25T09:52:31.664Z,7.78
2022-07-25T09:55:00.350Z,7.45
2022-07-25T09:57:29.147Z,7.35
2022-07-25T09:59:57.311Z,7.55
2022-07-25T10:02:40.935Z,7.00
2022-07-25T10:05:16.005Z,7.65
2022-07-25T10:07:48.539Z,7.40
2022-07-25T10:10:26.709Z,6.82
2022-07-25T10:13:10.754Z,6.88
2022-07-25T10:15:43.992Z,6.45
2022-07-25T10:18:12.359Z,6.82
2022-07-25T10:20:40.777Z,6.88
2022-07-25T10:23:20.701Z,6.43
2022-07-25T10:25:49.446Z,6.43
2022-07-25T10:28:20.826Z,6.13
2022-07-25T10:30:59.577Z,6.72
2022-07-25T10:33:27.768Z,7.00
2022-07-25T10:36:07.392Z,6.38
2022-07-25T10:38:39.969Z,6.57
2022-07-25T10:41:10.526Z,6.95
2022-07-25T10:43:39.278Z,6.78
2022-07-25T10:46:14.409Z,6.32
2022-07-25T10:48:43.126Z,6.43
2022-07-25T10:51:13.679Z,6.03
2022-07-25T10:53:48.811Z,6.45
2022-07-25T10:56:18.003Z,6.25
2022-07-25T10:58:52.264Z,5.82
2022-07-25T11:01:25.399Z,6.80
2022-07-25T11:03:55.150Z,6.45
2022-07-25T11:06:34.703Z,6.63
2022-07-25T11:09:05.795Z,6.35
2022-07-25T11:11:38.758Z,5.85
2022-07-25T11:14:14.851Z,5.93
2022-07-25T11:16:43.159Z,6.20
2022-07-25T11:19:21.891Z,5.72
2022-07-25T11:21:53.771Z,5.68
2022-07-25T11:24:23.836Z,6.15
2022-07-25T11:26:53.757Z,5.72
2022-07-25T11:29:23.921Z,5.90
2022-07-25T11:31:57.097Z,5.85
2022-07-25T11:34:27.133Z,5.60
2022-07-25T11:36:57.444Z,5.07
2022-07-25T11:39:28.343Z,5.28
2022-07-25T11:42:07.703Z,5.60
2022-07-25T11:44:42.978Z,5.55
2022-07-25T11:47:25.230Z,4.70
2022-07-25T11:49:55.856Z,5.45
2022-07-25T11:52:26.221Z,5.03
2022-07-25T11:54:57.366Z,5.47
2022-07-25T11:57:26.963Z,5.60
2022-07-25T11:59:55.783Z,5.32
2022-07-25T12:02:25.757Z,5.55
2022-07-25T12:04:59.105Z,5.07
2022-07-25T12:07:45.788Z,5.40
2022-07-25T12:10:17.820Z,5.32
2022-07-25T12:12:49.527Z,5.05
2022-07-25T12:15:19.992Z,5.25
2022-07-25T12:17:48.700Z,4.78
2022-07-25T12:20:18.114Z,5.25
2022-07-25T12:22:46.769Z,4.82
2022-07-25T12:25:16.378Z,4.93
2022-07-25T12:27:45.017Z,4.90
2022-07-25T12:30:14.769Z,5.47
2022-07-25T12:32:46.209Z,5.38
2022-07-25T12:35:15.441Z,5.00
2022-07-25T12:37:44.428Z,5.10
2022-07-25T12:40:15.633Z,4.65
2022-07-25T12:42:44.296Z,4.65
2022-07-25T12:45:12.884Z,4.53
2022-07-25T12:47:40.970Z,4.45
2022-07-25T12:50:09.647Z,5.03
2022-07-25T12:52:39.006Z,4.95
2022-07-25T12:55:08.111Z,4.80
2022-07-25T12:57:38.491Z,4.22
2022-07-25T13:00:08.723Z,4.80
2022-07-25T13:02:37.610Z,4.50
2022-07-25T13:05:06.807Z,4.53
2022-07-25T13:07:34.986Z,4.43
2022-07-25T13:10:03.769Z,3.70
2022-07-25T13:12:31.977Z,3.78
2022-07-25T13:15:01.776Z,3.88
2022-07-25T13:17:29.939Z,3.28
2022-07-25T13:19:58.316Z,4.07
2022-07-25T13:22:27.457Z,3.63
2022-07-25T13:24:55.907Z,4.00
2022-07-25T13:27:24.719Z,3.58
2022-07-25T13:29:55.124Z,3.75
2022-07-25T13:32:26.576Z,3.15
2022-07-25T13:34:54.708Z,3.13
2022-07-25T13:37:22.834Z,3.38
2022-07-25T13:39:51.348Z,3.15
2022-07-25T13:42:19.395Z,3.80
2022-07-25T13:44:47.414Z,3.90
2022-07-25T13:47:15.604Z,3.60
2022-07-25T13:49:45.104Z,3.33
2022-07-25T13:52:13.171Z,3.22
2022-07-25T13:54:41.308Z,3.20
2022-07-25T13:57:10.471Z,3.50
2022-07-25T13:59:38.570Z,3.60
2022-07-25T14:02:06.803Z,3.10
2022-07-25T14:04:34.914Z,3.20
2022-07-25T14:07:04.590Z,3.20
2022-07-25T14:09:32.647Z,3.80
2022-07-25T14:12:00.690Z,3.83
2022-07-25T14:14:28.738Z,3.10
2022-07-25T14:16:56.868Z,2.92
2022-07-25T14:19:25.270Z,2.70
2022-07-25T14:21:53.589Z,3.33
2022-07-25T14:24:23.278Z,2.83
2022-07-25T14:26:51.403Z,3.20
2022-07-25T14:29:19.509Z,2.90
2022-07-25T14:31:47.622Z,3.25
2022-07-25T14:34:16.578Z,3.40
2022-07-25T14:36:47.628Z,2.60
2022-07-25T14:39:16.521Z,3.00
2022-07-25T14:41:46.050Z,3.42
2022-07-25T14:44:14.156Z,3.38
2022-07-25T14:46:43.058Z,3.33
2022-07-25T14:49:14.153Z,3.25
2022-07-25T14:51:43.033Z,3.15
2022-07-25T14:54:11.142Z,3.92
2022-07-25T14:56:40.090Z,4.40
2022-07-25T14:59:10.351Z,3.95
2022-07-25T15:01:39.439Z,3.70
2022-07-25T15:04:07.884Z,3.92
2022-07-25T15:06:36.859Z,3.42
2022-07-25T15:09:05.505Z,3.60
2022-07-25T15:11:34.102Z,3.72
2022-07-25T15:14:02.215Z,3.42
2022-07-25T15:16:31.819Z,3.30
2022-07-25T15:19:17.479Z,3.70
2022-07-25T15:21:46.061Z,3.63
2022-07-25T15:24:14.512Z,3.78
2022-07-25T15:26:42.618Z,3.05
2022-07-25T15:29:12.097Z,5.30
2022-07-25T15:31:41.976Z,3.92
2022-07-25T15:34:10.124Z,3.60
2022-07-25T15:36:38.219Z,3.80
2022-07-25T15:39:06.577Z,3.95
2022-07-25T15:41:34.888Z,3.22
2022-07-25T15:44:03.389Z,3.78
2022-07-25T15:46:32.852Z,3.53
2022-07-25T15:49:04.151Z,3.60
2022-07-25T15:51:32.613Z,3.63
2022-07-25T15:54:00.732Z,4.90
2022-07-25T15:56:28.906Z,3.50
2022-07-25T15:58:56.990Z,3.45
2022-07-25T16:01:25.066Z,3.40
2022-07-25T16:03:53.302Z,3.38
2022-07-25T16:06:23.520Z,3.33
2022-07-25T16:08:51.653Z,3.67
2022-07-25T16:11:19.790Z,3.50
2022-07-25T16:13:47.810Z,3.50
2022-07-25T16:16:16.205Z,3.58
2022-07-25T16:18:44.809Z,4.40
2022-07-25T16:21:12.899Z,4.10
2022-07-25T16:23:45.500Z,3.88
2022-07-25T16:26:14.050Z,3.30
2022-07-25T16:28:42.199Z,3.80
2022-07-25T16:31:10.740Z,3.83
2022-07-25T16:33:38.933Z,3.72
2022-07-25T16:36:07.614Z,3.95
2022-07-25T16:38:35.810Z,3.80
2022-07-25T16:41:05.351Z,3.97
2022-07-25T16:43:33.427Z,3.65
2022-07-25T16:46:02.383Z,3.60
2022-07-25T16:48:30.744Z,3.80
2022-07-25T16:50:58.965Z,4.28
2022-07-25T16:53:27.026Z,3.92
2022-07-25T16:55:55.030Z,3.40
2022-07-25T16:58:24.472Z,4.20
2022-07-25T17:00:52.564Z,4.00
2022-07-25T17:03:21.033Z,3.78
2022-07-25T17:05:51.751Z,3.90
2022-07-25T17:08:19.950Z,4.03
2022-07-25T17:10:48.429Z,4.05
2022-07-25T17:13:16.996Z,3.88
2022-07-25T17:15:46.457Z,4.00
2022-07-25T17:18:15.262Z,4.68
2022-07-25T17:20:43.517Z,5.18
2022-07-25T17:23:11.626Z,6.00
2022-07-25T17:25:40.580Z,5.10
2022-07-25T17:28:09.714Z,5.25
2022-07-25T17:30:37.745Z,5.22
2022-07-25T17:33:07.228Z,5.18
2022-07-25T17:35:35.437Z,5.97
2022-07-25T17:38:03.658Z,5.60
2022-07-25T17:40:31.795Z,5.40
2022-07-25T17:43:00.038Z,6.05
2022-07-25T17:45:28.223Z,5.85
2022-07-25T17:47:56.878Z,6.05
2022-07-25T17:50:29.369Z,5.70
2022-07-25T17:52:59.678Z,4.82
2022-07-25T17:55:28.728Z,5.75
2022-07-25T17:57:59.670Z,5.90
2022-07-25T18:00:28.528Z,5.88
2022-07-25T18:02:56.740Z,5.80
2022-07-25T18:05:26.894Z,7.32
2022-07-25T18:07:55.184Z,6.18
2022-07-25T18:10:23.569Z,6.47
2022-07-25T18:12:52.024Z,5.70
2022-07-25T18:15:20.224Z,7.05
2022-07-25T18:17:49.189Z,6.78
2022-07-25T18:20:19.206Z,7.07
2022-07-25T18:22:49.807Z,6.68
2022-07-25T18:25:18.408Z,6.88
2022-07-25T18:27:48.436Z,6.43
2022-07-25T18:30:16.987Z,6.38
2022-07-25T18:32:45.727Z,6.88
2022-07-25T18:35:14.492Z,6.18
2022-07-25T18:37:43.759Z,7.40
2022-07-25T18:40:14.809Z,7.85
2022-07-25T18:42:42.941Z,6.38
2022-07-25T18:45:12.699Z,6.43
2022-07-25T18:47:41.035Z,6.60
2022-07-25T18:50:10.190Z,6.13
2022-07-25T18:52:38.711Z,6.90
2022-07-25T18:55:09.433Z,6.35
2022-07-25T18:57:39.515Z,7.25
2022-07-25T19:00:09.211Z,8.70
2022-07-25T19:02:37.343Z,7.72
2022-07-25T19:05:06.412Z,8.38
2022-07-25T19:07:35.156Z,8.82
2022-07-25T19:10:03.530Z,8.82
2022-07-25T19:12:31.711Z,8.13
2022-07-25T19:15:01.211Z,8.20
2022-07-25T19:17:29.393Z,7.93
2022-07-25T19:19:57.511Z,8.57
2022-07-25T19:22:25.784Z,8.15
2022-07-25T19:24:54.063Z,7.55
2022-07-25T19:27:23.989Z,8.55
2022-07-25T19:29:52.114Z,8.82
2022-07-25T19:32:22.762Z,8.57
2022-07-25T19:34:50.917Z,8.23
2022-07-25T19:37:18.999Z,9.00
2022-07-25T19:39:49.019Z,8.57
2022-07-25T19:42:17.388Z,8.45
2022-07-25T19:44:45.679Z,8.15
2022-07-25T19:47:13.988Z,9.10
2022-07-25T19:49:43.499Z,8.73
2022-07-25T19:52:12.383Z,9.07
2022-07-25T19:54:41.018Z,8.70
2022-07-25T19:57:09.130Z,8.90
2022-07-25T19:59:37.404Z,8.80
2022-07-25T20:02:05.711Z,9.18
2022-07-25T20:04:33.918Z,10.13
2022-07-25T20:07:03.501Z,9.60
2022-07-25T20:09:32.792Z,9.25
2022-07-25T20:12:01.071Z,8.60
2022-07-25T20:14:29.144Z,9.02
2022-07-25T20:16:57.904Z,10.50
2022-07-25T20:19:26.177Z,9.73
2022-07-25T20:21:54.248Z,9.80
2022-07-25T20:24:23.712Z,8.70
2022-07-25T20:26:51.887Z,8.85
2022-07-25T20:29:19.996Z,9.40
2022-07-25T20:31:48.241Z,9.30
2022-07-25T20:34:17.079Z,9.75
2022-07-25T20:36:47.755Z,9.15
2022-07-25T20:39:16.028Z,9.48
2022-07-25T20:41:45.591Z,10.40
2022-07-25T20:44:13.747Z,10.65
2022-07-25T20:46:41.886Z,10.15
2022-07-25T20:49:11.827Z,10.20
2022-07-25T20:51:42.053Z,10.10
2022-07-25T20:54:10.284Z,9.45
2022-07-25T20:56:38.392Z,8.98
2022-07-25T20:59:08.310Z,8.73
2022-07-25T21:01:37.799Z,7.40
2022-07-25T21:04:07.836Z,7.25
2022-07-25T21:06:36.926Z,8.85
2022-07-25T21:09:06.200Z,7.75
2022-07-25T21:11:36.789Z,8.40
2022-07-25T21:14:05.948Z,7.82
2022-07-25T21:16:35.782Z,8.35
2022-07-25T21:19:04.114Z,7.97
2022-07-25T21:21:32.349Z,8.63
2022-07-25T21:24:00.502Z,8.80
2022-07-25T21:26:29.569Z,9.15
2022-07-25T21:28:57.781Z,9.45
2022-07-25T21:31:25.921Z,7.38
2022-07-25T21:33:55.521Z,8.18
2022-07-25T21:36:23.871Z,8.57
2022-07-25T21:38:52.064Z,7.50
2022-07-25T21:41:20.296Z,8.10
2022-07-25T21:43:48.640Z,7.78
2022-07-25T21:46:16.929Z,7.90
2022-07-25T21:49:02.606Z,7.20
2022-07-25T21:51:40.568Z,7.45
2022-07-25T21:54:09.672Z,8.30
2022-07-25T21:56:37.732Z,7.18
2022-07-25T21:59:06.886Z,9.05
2022-07-25T22:01:35.346Z,8.98
2022-07-25T22:04:03.733Z,8.18
2022-07-25T22:06:33.267Z,6.90
2022-07-25T22:09:01.667Z,6.57
2022-07-25T22:11:42.656Z,6.88
2022-07-25T22:14:14.136Z,7.00
2022-07-25T22:16:42.440Z,6.95
2022-07-25T22:19:10.932Z,7.07
2022-07-25T22:21:40.803Z,7.72
2022-07-25T22:24:09.396Z,8.32
2022-07-25T22:26:37.640Z,8.30
2022-07-25T22:29:06.175Z,8.35
2022-07-25T22:31:34.593Z,7.55
2022-07-25T22:34:02.718Z,7.80
2022-07-25T22:36:31.051Z,7.90
2022-07-25T22:39:00.538Z,7.80
2022-07-25T22:41:28.643Z,7.55
2022-07-25T22:43:59.681Z,8.10
2022-07-25T22:46:29.074Z,7.65
2022-07-25T22:48:57.657Z,7.97
2022-07-25T22:51:26.646Z,7.40
2022-07-25T22:53:55.292Z,7.97
2022-07-25T22:56:25.277Z,8.77
2022-07-25T22:58:53.960Z,7.28
2022-07-25T23:01:22.523Z,7.72
2022-07-25T23:03:51.514Z,6.95
2022-07-25T23:06:20.700Z,8.30
2022-07-25T23:08:49.771Z,7.80
2022-07-25T23:11:18.553Z,7.75
2022-07-25T23:13:48.552Z,7.00
2022-07-25T23:16:16.927Z,6.75
2022-07-25T23:18:45.234Z,7.38
2022-07-25T23:21:13.419Z,7.97
2022-07-25T23:23:41.549Z,8.13
2022-07-25T23:26:09.759Z,8.32
2022-07-25T23:28:38.073Z,8.05
2022-07-25T23:31:07.954Z,8.30
2022-07-25T23:33:36.320Z,10.00
2022-07-25T23:36:04.695Z,8.35
2022-07-25T23:38:33.084Z,8.85
2022-07-25T23:41:01.213Z,8.63
2022-07-25T23:43:57.584Z,8.70
2022-07-25T23:46:22.477Z,9.73
2022-07-25T23:48:57.755Z,9.13
2022-07-25T23:51:25.933Z,9.38
2022-07-25T23:53:54.046Z,8.73
2022-07-25T23:56:22.402Z,10.07
2022-07-25T23:58:51.188Z,9.63
